White Horse, Pennsylvania
Current Conditions -  °F | °C
As of 5:35 PM on Friday 31 Oct 2014 (Local Time) from KMQS Reporting Station
Overcast Overcast  
Wind Chill: 43°   Ceiling: 4200
Heat Index: 48°   Visibility: 10mi
Dew Point: 36°   Wind: 14mph
Humidity: 62%   Direction: 90°E
Pressure: 29.88"   Gusts: 18mph
Location:  40.0073°N, 75.9953°W
Report Text: KMQS 312135Z AUTO 09012G16KT 10SM BKN042 OVC050 09/02 A2988 RMK AO2
Loading
Personal Weather Stations






























Interactive Weather Map
Tropical Storm Tracking
New forecast layout! Learn more

10-Day Weather Forecast

Advertisements
Track Severe Weather on mobile